Weather observations for the past three days for
Hillsboro, Hillsboro Municipal Airport
Imperial (Metric)
Date Time (cdt) Wind (mph) Vis. (mi.) Weather Sky Cond. Temperature (ºF) Relative Humidity Wind Chill (°F) Heat Index (°F) Pressure Precipitation (in)
Air Dwpt 6 hour altimeter (in) sea level (mb) 1 hr 3 hr 6 hr
Max. Min.
04 12:15 S 8 10.00 Fair CLR 92.5 69.1 46% 98 29.97 0.0
04 11:55 SW 6 10.00 Fair CLR 91.8 69.3 48% 97 29.98 0.0
04 11:35 S 9 10.00 Fair CLR 89.2 71.2 55% 96 29.98 0.0
04 11:15 S 7 10.00 Fair CLR 88.2 72.1 59% 95 29.98 0.0
04 10:55 SW 10 10.00 Partly Cloudy SCT024 87.3 72.5 62% 94 29.97 0.0
04 10:35 SW 6 10.00 Partly Cloudy SCT024 86.4 73.2 65% 94 29.98 0.0
04 10:15 S 12 10.00 Partly Cloudy SCT020 SCT090 85.5 73.6 68% 93 29.97 0.0
04 09:55 S 7 10.00 Partly Cloudy SCT090 83.7 74.3 74% 91 29.98 0.0
04 09:35 S 8 10.00 Partly Cloudy SCT090 83.3 74.7 75% 91 29.97 0.0
04 09:20 S 8 10.00 Partly Cloudy SCT013 SCT090 82.9 75 77% 90 29.97 0.0
04 08:55 S 9 10.00 Partly Cloudy SCT011 SCT015 81.7 80.8 97% 92 29.97 0.0
04 08:35 S 7 10.00 Partly Cloudy SCT011 79.9 79.9 100% 87 29.96 0.0
04 08:15 SE 9 10.00 Partly Cloudy SCT011 79 79 100% 84 29.96 0.0
04 07:55 SE 8 10.00 Fair CLR 78.4 78.4 100% 82 29.95 0.0
04 07:35 SE 8 10.00 Partly Cloudy SCT110 77.9 77.9 100% 80 29.94 0.0
04 07:15 SE 6 10.00 Mostly Cloudy BKN110 77.9 77.9 100% 80 29.94 0.0
04 06:55 SE 9 10.00 Mostly Cloudy BKN095 78.1 78.1 80.6 77.9 100% 81 29.94 0.0
04 06:35 SE 7 10.00 Mostly Cloudy BKN110 78.3 78.3 100% 81 29.94 0.0
04 06:15 SE 6 10.00 Overcast SCT095 OVC110 78.3 78.3 100% 81 29.93 0.0
04 05:55 SE 5 10.00 Overcast OVC100 78.4 78.1 99% 82 29.93 0.0
04 05:35 Calm 10.00 Overcast OVC100 78.3 78.3 100% 81 29.92 0.0
04 05:15 S 3 10.00 Mostly Cloudy BKN100 77.9 77.9 100% 80 29.92 0.0
04 04:55 SE 5 10.00 Partly Cloudy SCT090 78.1 77.4 98% 81 29.92 0.0
04 04:35 SE 5 10.00 Partly Cloudy SCT090 78.3 75.4 91% 81 29.92 0.0
04 04:20 S 6 10.00 Partly Cloudy SCT090 78.6 74.7 88% 82 29.92 0.0
04 03:55 SE 7 10.00 Partly Cloudy SCT120 79 74.3 86% 83 29.92 0.0
04 03:35 S 5 10.00 Mostly Cloudy BKN120 79.3 74.3 85% 83 29.93 0.0
04 03:15 S 7 10.00 Overcast OVC120 79.7 74.3 84% 84 29.92 0.0
04 02:55 S 8 10.00 Overcast OVC120 79.7 74.3 84% 84 29.92 0.0
04 02:35 S 8 10.00 Overcast OVC120 79.7 74.3 84% 84 29.93 0.0
04 02:15 S 8 10.00 Mostly Cloudy BKN120 79.7 74.3 84% 84 29.93 0.0
04 01:55 SE 10 10.00 Partly Cloudy SCT120 79.9 73.9 82% 84 29.93 0.0
04 01:35 S 10 10.00 Partly Cloudy SCT120 80.2 73.9 81% 85 29.93 0.0
04 01:15 SE 12 G 16 10.00 Partly Cloudy SCT120 80.6 73.8 80% 85 29.93 0.0
04 00:55 SE 10 10.00 Partly Cloudy SCT120 80.2 73.6 85.1 79 80% 85 29.93 0.0
04 00:35 SE 10 10.00 Partly Cloudy SCT090 79.9 73.4 81% 84 29.93 0.0
04 00:15 SE 10 10.00 Mostly Cloudy SCT080 BKN090 79.7 73.4 81% 84 29.93 0.0
03 23:55 SE 9 10.00 Partly Cloudy SCT080 SCT090 SCT110 79.3 73.4 82% 83 29.93 0.0
03 23:35 SE 9 10.00 Partly Cloudy SCT090 SCT110 79.2 73.2 82% 83 29.93 0.0
03 23:15 SE 9 10.00 Mostly Cloudy BKN100 79 73 82% 82 29.93 0.0
03 22:55 SE 9 10.00 Mostly Cloudy BKN100 79.2 72.9 81% 83 29.93 0.0
03 22:40 SE 9 10.00 Mostly Cloudy SCT090 BKN110 79.2 72.7 81% 83 29.93 0.0
03 22:15 SE 9 10.00 Mostly Cloudy SCT080 BKN120 79.3 72 78% 83 29.92 0.0
03 22:00 SE 9 10.00 Partly Cloudy SCT080 79.7 71.4 76% 83 29.92 0.0
03 21:35 SE 7 10.00 Fair CLR 79.9 70.9 74% 83 29.91 0.0
03 21:15 SE 7 10.00 Fair CLR 80.8 70.7 72% 84 29.9 0.0
03 20:55 SE 9 10.00 Fair CLR 81.1 70.3 70% 85 29.89 0.0
03 20:35 SE 8 10.00 Fair CLR 81.9 70.2 68% 86 29.89 0.0
03 20:15 SE 9 10.00 Fair CLR 82.6 70 66% 87 29.88 0.0
03 19:55 SE 12 10.00 Fair CLR 83.3 69.8 64% 87 29.88 0.0
03 19:35 SE 8 10.00 Fair CLR 83.8 69.8 63% 88 29.88 0.0
03 19:15 SE 9 10.00 Fair CLR 84.2 70.2 63% 89 29.88 0.0
03 18:55 SE 14 10.00 Fair CLR 85.1 69.4 90.7 83.3 60% 89 29.88 0.0
03 18:35 SE 15 G 20 10.00 Fair CLR 86.2 69.1 57% 90 29.87 0.0
03 18:15 SE 17 10.00 Fair CLR 87.1 68.5 54% 91 29.87 0.0
03 17:55 SE 15 G 20 10.00 Partly Cloudy SCT120 89.1 69.1 52% 94 29.87 0.0
03 17:35 SE 15 G 21 10.00 Mostly Cloudy SCT100 BKN120 89.6 70 52% 95 29.87 0.0
03 17:15 SE 16 G 21 10.00 Overcast BKN100 OVC120 90.1 72 55% 97 29.86 0.0
03 16:55 S 13 10.00 Overcast OVC110 90.1 70.9 53% 96 29.86 0.0
03 16:35 SE 14 10.00 Mostly Cloudy BKN120 90 71.8 55% 97 29.87 0.0
03 16:15 SE 14 10.00 Mostly Cloudy BKN120 89.6 72.5 57% 97 29.87 0.0
03 15:55 SE 15 G 18 10.00 Overcast SCT034 OVC120 89.2 72.9 59% 97 29.88 0.0
03 15:40 S 13 10.00 Overcast SCT032 OVC110 88.7 72.9 60% 96 29.88 0.0
03 15:15 SE 14 G 18 10.00 Overcast OVC110 87.8 73.2 62% 96 29.89 0.0
03 15:00 SE 14 G 22 10.00 Mostly Cloudy BKN110 87.6 73 62% 95 29.9 0.0
03 14:35 S 17 G 21 10.00 Mostly Cloudy BKN120 87.1 73.6 64% 95 29.91 0.0
03 14:15 SE 15 10.00 Mostly Cloudy BKN120 85.8 73.6 67% 93 29.92 0.0
03 13:55 S 17 10.00 Partly Cloudy SCT110 85.5 73.9 69% 93 29.94 0.0
03 13:35 SE 16 G 22 10.00 Partly Cloudy SCT018 SCT120 84.2 74.3 72% 92 29.94 0.0
03 13:15 SE 18 G 24 10.00 Mostly Cloudy SCT018 SCT036 BKN120 83.8 73.8 72% 91 29.95 0.0
03 12:55 S 18 G 24 10.00 Overcast SCT018 SCT036 OVC120 83.7 73.8 85.5 79.2 72% 90 29.96 0.0
03 12:35 SE 18 10.00 Overcast SCT018 SCT036 OVC120 83.8 73.8 72% 91 29.96 0.0
03 12:15 SE 22 G 28 10.00 Mostly Cloudy and Breezy SCT020 SCT037 BKN095 84.6 74.3 71% 92 29.97 0.0
03 11:55 SE 18 G 24 10.00 Overcast SCT019 BKN027 OVC120 84.6 74.5 72% 92 29.97 0.0
03 11:35 SE 20 G 25 10.00 Overcast SCT018 BKN028 OVC120 84.2 74.8 74% 92 29.96 0.0
03 11:15 SE 14 G 18 10.00 Overcast SCT017 BKN026 OVC120 84.9 75.2 73% 94 29.96 0.0
03 10:55 S 16 10.00 Overcast BKN019 OVC028 85.3 75 71% 94 29.96 0.0
03 10:40 SE 14 10.00 Overcast OVC021 84.9 74.8 72% 93 29.95 0.0
03 10:15 S 15 G 21 10.00 Overcast BKN020 BKN027 OVC085 84.7 74.8 72% 93 29.95 0.0
03 10:00 S 12 10.00 Overcast BKN018 OVC025 84 75.2 75% 92 29.95 0.0
03 09:35 SE 13 10.00 Overcast OVC018 83.1 75.2 77% 91 29.94 0.0
03 09:15 SE 12 10.00 Overcast OVC018 82.2 75.2 79% 89 29.94 0.0
03 08:55 SE 13 10.00 Mostly Cloudy BKN018 BKN100 81.5 74.7 80% 88 29.94 0.0
03 08:35 S 10 G 16 10.00 Mostly Cloudy SCT016 BKN090 BKN110 81.1 74.3 80% 87 29.94 0.0
03 08:15 SE 9 10.00 Mostly Cloudy SCT016 BKN090 80.2 73.8 81% 85 29.94 0.0
03 07:55 SE 8 10.00 Partly Cloudy SCT100 79.9 73.2 80% 84 29.93 0.0
03 07:35 S 9 10.00 Partly Cloudy SCT095 79.7 72.7 79% 84 29.93 0.0
03 07:15 S 6 10.00 Partly Cloudy SCT095 79.3 72.5 80% 83 29.92 0.0
03 06:55 SE 8 10.00 Mostly Cloudy BKN085 79.7 72.5 79.7 77 79% 83 29.92 0.0
03 06:35 S 8 10.00 Overcast OVC085 79.7 72.1 78% 83 29.92 0.0
03 06:15 S 9 10.00 Mostly Cloudy BKN085 79.7 71.8 77% 83 29.91 0.0
03 05:55 S 7 10.00 Partly Cloudy SCT085 79.3 71.6 77% 83 29.91 0.0
03 05:35 SE 7 10.00 Fair CLR 79.7 71.8 77% 83 29.91 0.0
03 05:15 SE 8 10.00 Fair CLR 79.7 71.8 77% 83 29.91 0.0
03 05:00 SE 6 10.00 Fair CLR 79.5 71.8 77% 83 29.91 0.0
03 04:35 SE 5 10.00 Fair CLR 79.7 71.6 76% 83 29.91 0.0
03 04:15 S 5 10.00 Fair CLR 79.5 71.1 75% 83 29.91 0.0
03 03:55 S 7 10.00 Fair CLR 79.7 71.2 75% 83 29.91 0.0
03 03:35 SE 7 10.00 Fair CLR 79.7 71.2 75% 83 29.91 0.0
03 03:15 SE 6 10.00 Fair CLR 79.3 70.9 75% 82 29.91 0.0
03 02:55 E 5 10.00 Fair CLR 78.3 70.7 78% 81 29.92 0.0
03 02:35 Calm 10.00 Fair CLR 77.4 70.7 80% 79 29.91 0.0
03 02:15 E 5 10.00 Fair CLR 77 70.3 80% 79 29.92 0.0
03 01:55 E 3 10.00 Fair CLR 77 70.2 80% 79 29.91 0.0
03 01:40 E 3 10.00 Fair CLR 77.2 70.3 80% 79 29.91 0.0
03 01:15 E 3 10.00 Fair CLR 77.9 70.3 78% 80 29.93 0.0
03 00:55 Calm 10.00 Fair CLR 78.4 70.2 91.2 78.4 76% 81 29.93 0.0
03 00:35 E 5 10.00 Fair CLR 79 70.2 74% 82 29.94 0.0
03 00:15 E 3 10.00 Fair CLR 79.9 70 72% 83 29.93 0.0
02 23:55 SE 5 10.00 Fair CLR 81 69.8 69% 84 29.94 0.0
02 23:35 SE 7 10.00 Fair CLR 81.7 69.8 67% 85 29.94 0.0
02 23:15 SE 6 10.00 Fair CLR 82.4 69.4 65% 86 29.94 0.0
02 22:55 SE 6 10.00 Partly Cloudy SCT120 82.8 69.8 65% 87 29.93 0.0
02 22:35 SE 6 10.00 Partly Cloudy SCT120 83.8 69.8 63% 88 29.93 0.0
02 22:15 SE 7 10.00 Fair CLR 84.7 69.6 61% 89 29.93 0.0
02 21:55 E 8 10.00 Fair CLR 85.3 69.8 60% 90 29.92 0.0
02 21:40 SE 8 10.00 Fair CLR 85.8 69.4 58% 90 29.91 0.0
02 21:15 E 8 10.00 Fair CLR 86.5 69.4 57% 91 29.9 0.0
02 20:55 E 12 G 16 10.00 Partly Cloudy SCT120 87.3 69.8 56% 92 29.89 0.0
02 20:40 E 14 10.00 Partly Cloudy SCT120 88 69.8 55% 93 29.89 0.0
02 20:15 E 10 G 17 10.00 Partly Cloudy SCT120 89.1 70 53% 94 29.88 0.0
02 19:55 E 9 10.00 Fair CLR 90.5 69.8 51% 96 29.88 0.0
02 19:40 E 12 G 16 10.00 Fair CLR 90.7 69.8 50% 96 29.88 0.0
02 19:15 E 14 10.00 Fair CLR 91 70 50% 97 29.88 0.0
02 18:55 E 13 10.00 Partly Cloudy SCT075 SCT100 90.5 68.9 100.9 90.5 49% 95 29.88 0.0
02 18:35 E 18 G 30 10.00 Mostly Cloudy SCT075 BKN100 93 67.5 43% 97 29.88 0.0
02 18:15 E 16 G 21 10.00 Partly Cloudy SCT075 99.7 66.4 34% 104 29.86 0.0
02 17:55 Calm 10.00 Fair CLR 99.5 64.2 31% 102 29.86 0.0
02 17:35 E 8 10.00 Fair CLR 99.9 64.9 32% 103 29.86 0.0
02 17:15 NE 7 G 17 10.00 Fair CLR 99.7 64 31% 102 29.86 0.0
02 16:55 NE 9 10.00 Fair CLR 99.1 63.5 31% 101 29.87 0.0
02 16:40 NE 13 G 17 10.00 Fair CLR 99.7 63.5 31% 102 29.87 0.0
02 16:15 NE 15 G 18 10.00 Fair CLR 99.9 64.4 31% 103 29.88 0.0
02 15:55 NE 12 G 20 10.00 Partly Cloudy SCT070 100 65.1 32% 104 29.88 0.0
02 15:40 N 3 G 16 10.00 Partly Cloudy SCT070 98.2 64.9 34% 101 29.88 0.0
02 15:15 NE 6 G 16 10.00 Fair CLR 98.4 65.1 34% 102 29.9 0.0
02 14:55 NW 6 10.00 Fair CLR 98.4 64.6 33% 101 29.91 0.0
02 14:35 NW 6 G 16 10.00 Fair CLR 98.1 65.5 34% 101 29.92 0.0
02 14:15 Calm 10.00 Fair CLR 96.8 66.4 37% 101 29.93 0.0
02 13:55 N 6 10.00 Fair CLR 96.3 66.6 38% 100 29.94 0.0
02 13:35 N 10 10.00 Fair CLR 97.2 66 36% 101 29.94 0.0
02 13:15 N 5 10.00 Fair CLR 95.4 64.6 36% 98 29.96 0.0
02 12:55 N 10 G 16 10.00 Fair CLR 94.6 65.1 95.2 76.8 38% 97 29.97 0.0
02 12:35 Calm 10.00 Fair CLR 93.6 65.7 40% 96 29.98 0.0
02 12:15 NW 3 10.00 Fair CLR 93.7 66 40% 97 29.99 0.0
02 11:55 Calm 10.00 Fair CLR 93.2 66.6 42% 97 30 0.0
02 11:35 N 5 10.00 Fair CLR 92.1 67.6 45% 96 30 0.0
02 11:15 N 6 10.00 Fair CLR 90.5 68.2 48% 95 30 0.0
02 10:55 Calm 10.00 Fair CLR 89.8 68.5 50% 94 30 0.0
02 10:35 Calm 10.00 Fair CLR 87.8 68.2 52% 92 30 0.0
02 10:15 Calm 10.00 Fair CLR 87.1 68.9 55% 91 30 0.0
02 09:55 E 7 10.00 Fair CLR 85.6 69.8 59% 90 30 0.0
02 09:35 E 8 10.00 Fair CLR 84.9 70 61% 89 30 0.0
02 09:20 E 8 10.00 Fair CLR 84.2 70 62% 89 30 0.0
02 08:55 E 9 10.00 Fair CLR 82.8 69.8 65% 87 30 0.0
02 08:35 E 7 10.00 Fair CLR 81.1 69.8 69% 85 30 0.0
02 08:20 E 5 10.00 Fair CLR 79.5 69.4 71% 82 30 0.0
02 07:55 E 7 10.00 Fair CLR 78.1 69.3 74% 80 29.99 0.0
02 07:35 E 7 10.00 Fair CLR 77.2 69.1 76% 79 29.98 0.0
02 07:15 E 6 10.00 Fair CLR 77 68.9 76% 79 29.98 0.0
02 06:55 E 7 10.00 Fair CLR 77 68.9 84.6 76.5 76% 79 29.98 0.0
02 06:35 E 7 10.00 Fair CLR 77.2 68.7 75% 79 29.99 0.0
02 06:15 E 7 10.00 Fair CLR 77.2 68.9 76% 79 29.99 0.0
02 05:55 E 5 10.00 Fair CLR 77.2 68.4 74% 79 29.98 0.0
02 05:35 E 5 10.00 Fair CLR 77.9 68.2 72% 80 29.98 0.0
02 05:15 E 5 10.00 Fair CLR 77.9 68.4 73% 80 29.98 0.0
02 04:55 E 6 10.00 Fair CLR 77.9 68.5 73% 80 29.98 0.0
02 04:35 Calm 10.00 Fair CLR 77.9 68.2 72% 80 29.98 0.0
02 04:15 Calm 10.00 Fair CLR 77.5 66.4 69% 79 29.98 0.0
02 03:55 Calm 10.00 Fair CLR 77.7 67.1 70% 80 29.98 0.0
02 03:35 Calm 10.00 Fair CLR 79.5 68 68% 82 29.98 0.0
02 03:15 Calm 10.00 Fair CLR 80.4 68.2 66% 83 29.98 0.0
02 02:55 Calm 10.00 Fair CLR 80.6 67.8 65% 83 29.99 0.0
02 02:35 Calm 10.00 Fair CLR 80.8 66.6 62% 83 29.99 0.0
02 02:15 Calm 10.00 Fair CLR 81.7 67.5 62% 84 29.99 0.0
02 01:55 Calm 10.00 Fair CLR 82.4 68.4 63% 86 29.99 0.0
02 01:15 SE 5 10.00 Partly Cloudy SCT120 84.2 68.5 59% 88 29.98 0.0
02 00:55 SE 7 10.00 Mostly Cloudy BKN120 84.6 68.9 96.4 84.6 59% 88 29.98 0.0
02 00:35 SE 8 10.00 Partly Cloudy SCT120 84.7 68.9 59% 89 29.98 0.0
02 00:15 SE 9 10.00 Fair CLR 84.9 68.9 59% 89 29.98 0.0
01 23:55 SE 9 10.00 Fair CLR 85.1 68.9 58% 89 29.98 0.0
01 23:35 SE 8 10.00 Fair CLR 85.6 68.9 57% 90 29.98 0.0
01 23:15 SE 9 10.00 Fair CLR 86.2 68.9 56% 90 29.98 0.0
01 22:55 SE 14 G 17 10.00 Fair CLR 87.1 68.5 54% 91 29.98 0.0
01 22:35 SE 13 10.00 Partly Cloudy SCT070 88.2 67.8 51% 92 29.97 0.0
01 21:55 E 6 10.00 Fair CLR 88.2 66.6 49% 91 29.95 0.0
01 21:35 E 6 10.00 Fair CLR 89.8 66.4 46% 93 29.94 0.0
01 21:15 E 7 10.00 Fair CLR 89.4 66 46% 92 29.93 0.0
01 20:55 E 5 10.00 Fair CLR 90 66 45% 93 29.92 0.0
01 20:35 E 3 10.00 Fair CLR 91.2 65.7 43% 94 29.92 0.0
01 20:15 E 3 10.00 Fair CLR 92.7 65.7 41% 95 29.91 0.0
01 19:55 E 3 10.00 Fair CLR 94.5 65.1 38% 97 29.91 0.0
01 19:35 E 6 10.00 Fair CLR 95.5 64.4 36% 98 29.91 0.0
01 19:15 E 7 10.00 Fair CLR 96.3 65.7 37% 99 29.92 0.0
01 18:55 E 10 10.00 Fair CLR 96.3 65.5 100.6 94.1 36% 99 29.92 0.0
01 18:35 SE 8 10.00 Fair CLR 96.8 65.1 35% 100 29.92 0.0
01 18:15 E 8 10.00 Fair CLR 96.8 64.9 35% 100 29.92 0.0
01 17:55 SE 9 10.00 Partly Cloudy SCT090 97.2 64.2 34% 100 29.93 0.0
01 17:35 E 10 G 20 10.00 Partly Cloudy SCT080 SCT090 98.1 64.4 33% 101 29.92 0.0
01 17:15 E 5 10.00 Fair CLR 99.9 64.6 32% 103 29.92 0.0
01 16:55 SE 5 10.00 Fair CLR 97.2 64.9 35% 100 29.93 0.0
01 16:35 SE 6 10.00 Fair CLR 97.7 65.1 34% 101 29.93 0.0
01 16:15 E 12 10.00 Partly Cloudy SCT120 98.8 64.8 33% 102 29.94 0.0
01 15:55 E 6 10.00 Overcast SCT065 SCT100 OVC120 98.4 64.8 33% 101 29.95 0.0
01 15:35 E 7 10.00 Mostly Cloudy BKN065 BKN090 BKN120 99.9 66.2 33% 104 29.95 0.0
01 15:15 E 13 G 17 10.00 Partly Cloudy SCT065 SCT090 97.5 65.7 35% 101 29.96 0.0
01 14:55 NE 6 10.00 Partly Cloudy SCT065 97.9 66.2 36% 102 29.96 0.0
01 14:35 E 5 10.00 Partly Cloudy SCT065 98.2 66 35% 102 29.97 0.0
01 14:15 S 6 10.00 Fair CLR 97.5 67.1 37% 102 29.98 0.0
01 14:00 E 6 10.00 Partly Cloudy SCT060 97.3 67.1 37% 102 29.99 0.0
01 13:35 SE 6 10.00 Mostly Cloudy BKN060 BKN070 95.5 67.5 40% 100 30 0.0
01 13:15 E 7 10.00 Partly Cloudy SCT060 SCT070 94.8 67.6 41% 99 30.01 0.0
01 12:55 SE 6 10.00 Partly Cloudy SCT055 95.9 67.6 95.9 78.8 40% 101 30.02 0.0
01 12:35 S 6 10.00 Partly Cloudy SCT065 93.4 68 44% 98 30.03 0.0
Date Time (cdt) Wind (mph) Vis. (mi.) Weather Sky Cond. Air Dwpt Max. Min. Relative Humidity Wind Chill (°F) Heat Index (°F) altimeter (in) sea level (mb) 1 hr 3 hr 6 hr
6 hour
Temperature (ºF) Pressure Precipitation (in)